Terminal Aerodrome Forecast
Issued by NWS Wilmington, OH

Current Version | Previous Version | Graphics & Text | Print | Product List | Glossary On
Versions: 1 2 3 4 5 6 7 8 9 10 11 12 13 14 15 16 17 18 19 20 21 22 23 24 25 26 27 28 29 30 31 32 33 34 35 36 37
824
FTUS41 KILN 240520
TAFCVG
TAF
KCVG 240520Z 2406/2512 32004KT P6SM FEW100
     FM241000 VRB03KT P6SM FEW025 SCT100
      TEMPO 2411/2414 BKN025
     FM241400 04008KT P6SM SCT040 SCT250
     FM250200 05004KT P6SM SCT250=

USA.gov is the U.S. government's official web portal to all federal, state and local government web resources and services.